»·PEaware :: AAL225 KSAN-KSMX

AAL225 :: KSAN-KSMX

FLIGHT INFORMATION

Flight Status: Arrived
Operator:
American Airlines
More flights by this operator :: More flights under this callsign
Pilot: Michael R. (16974)
Aircraft: BOEING 737-800
(B738)
More flights by this aircraft type
Origin: KSAN San Diego Intl-Lindbergh
United States
Destination: KSMX Santa Maria Pub/Capt Hancock
United States
More flights between these airports :: More routes between these airports
Route: PADRZ2 PADRZ SXC WEEZL RZS KOAKS
File this flight plan on PilotEdge
Remarks:
Altitude:
(Current/Filed)
20,000ft
Speed:
(Current/Filed)
379kts
Departed: 09-May-18 08:08 PM
Arrived: 09-May-18 08:50 PM
Distance/Time
Traveled:
208nm/0:42
Distance/Time
To Go:
Arrived

Flight Plot

Page will automatically refresh every two minutes.

Flight plan parsing failed; only flown route is shown


Map Options




Map Legend


Flown Route
Filed Route
Departure Airport
Arrival Airport
Navaid (VOR, NDB)
Fix

Horizontal Profiles

Position Reports

Time Latitude Longitude Heading Altitude Ground
Speed
09-May-18 19:31 34.196769 -118.351017 179 785ft 0kts
09-May-18 19:32 34.196769 -118.351017 179 785ft 0kts
09-May-18 19:33 32.732327 -117.195904 307 25ft 0kts
09-May-18 19:34 32.732327 -117.195904 307 25ft 0kts
09-May-18 19:35 32.732327 -117.195904 307 25ft 0kts
09-May-18 19:36 32.732327 -117.195904 307 25ft 0kts
09-May-18 19:37 32.732327 -117.195904 307 25ft 0kts
09-May-18 19:38 32.732327 -117.195904 307 25ft 0kts
09-May-18 19:39 32.732327 -117.195904 307 25ft 0kts
09-May-18 19:40 32.732327 -117.195904 307 25ft 0kts
09-May-18 19:41 32.732327 -117.195904 307 25ft 0kts
09-May-18 19:42 32.732327 -117.195904 307 25ft 0kts
09-May-18 19:43 32.732327 -117.195904 307 25ft 0kts
09-May-18 19:44 32.732327 -117.195904 307 25ft 0kts
09-May-18 19:45 32.732327 -117.195904 307 25ft 0kts
09-May-18 19:46 32.732327 -117.195904 307 25ft 0kts
09-May-18 19:47 32.732327 -117.195904 307 25ft 0kts
09-May-18 19:48 32.732327 -117.195904 307 25ft 0kts
09-May-18 19:49 32.732327 -117.195904 307 25ft 0kts
09-May-18 19:50 32.732327 -117.195904 307 25ft 0kts
09-May-18 19:51 32.732327 -117.195904 307 25ft 0kts
09-May-18 19:52 32.732327 -117.195904 307 25ft 0kts
09-May-18 19:53 32.732327 -117.195904 307 25ft 0kts
09-May-18 19:54 32.732327 -117.195904 307 25ft 0kts
09-May-18 19:55 32.732207 -117.195623 299 25ft 2kts
09-May-18 19:56 32.731958 -117.195047 297 25ft 1kts
09-May-18 19:57 32.731815 -117.194992 14 25ft 0kts
09-May-18 19:58 32.731815 -117.194992 14 25ft 0kts
09-May-18 19:59 32.731815 -117.194992 14 25ft 0kts
09-May-18 20:00 32.732954 -117.194387 28 25ft 0kts
09-May-18 20:01 32.732954 -117.194387 28 25ft 0kts
09-May-18 20:02 32.733076 -117.191898 107 25ft 17kts
09-May-18 20:03 32.731238 -117.184284 106 25ft 28kts
09-May-18 20:04 32.729586 -117.177485 105 25ft 15kts
09-May-18 20:05 32.729523 -117.176807 77 25ft 0kts
09-May-18 20:06 32.729523 -117.176807 77 25ft 0kts
09-May-18 20:07 32.730071 -117.175886 339 25ft 7kts
09-May-18 20:08 32.734216 -117.192723 285 120ft 170kts
09-May-18 20:09 32.756969 -117.255820 307 3141ft 256kts
09-May-18 20:10 32.800359 -117.319401 307 7454ft 270kts
09-May-18 20:11 32.847780 -117.392529 305 10987ft 305kts
09-May-18 20:12 32.900347 -117.474099 304 14738ft 322kts
09-May-18 20:13 32.956471 -117.561659 302 17024ft 343kts
09-May-18 20:14 33.005274 -117.659321 297 19969ft 352kts
09-May-18 20:15 33.058019 -117.767005 297 19994ft 387kts
09-May-18 20:16 33.109696 -117.872643 297 19990ft 387kts
09-May-18 20:17 33.162047 -117.979960 297 19999ft 387kts
09-May-18 20:18 33.216279 -118.091448 297 19999ft 387kts
09-May-18 20:19 33.269627 -118.201413 297 19996ft 384kts
09-May-18 20:20 33.322269 -118.310307 297 19997ft 384kts
09-May-18 20:21 33.375465 -118.420536 299 19996ft 384kts
09-May-18 20:22 33.443810 -118.520245 307 19996ft 387kts
09-May-18 20:23 33.513108 -118.618571 307 19996ft 387kts
09-May-18 20:24 33.580220 -118.714084 306 20001ft 387kts
09-May-18 20:25 33.649519 -118.812852 306 20001ft 388kts
09-May-18 20:26 33.718941 -118.911909 306 19955ft 388kts
09-May-18 20:27 33.788197 -119.010795 307 19954ft 386kts
09-May-18 20:28 33.868430 -119.097430 315 19954ft 390kts
09-May-18 20:29 33.950596 -119.182937 315 19953ft 390kts
09-May-18 20:30 34.029402 -119.265052 314 19190ft 351kts
09-May-18 20:31 34.101825 -119.340963 314 18185ft 347kts
09-May-18 20:32 34.169345 -119.411899 314 17173ft 342kts
09-May-18 20:33 34.239882 -119.486051 313 15845ft 334kts
09-May-18 20:34 34.308749 -119.558459 313 14511ft 325kts
09-May-18 20:35 34.376056 -119.629253 313 13176ft 319kts
09-May-18 20:36 34.440470 -119.697040 313 11955ft 313kts
09-May-18 20:37 34.504761 -119.764629 314 10864ft 291kts
09-May-18 20:38 34.546596 -119.842066 295 9524ft 268kts
09-May-18 20:39 34.580480 -119.914847 295 8992ft 223kts
09-May-18 20:40 34.611193 -119.980064 295 8930ft 224kts
09-May-18 20:41 34.641250 -120.043298 295 7916ft 208kts
09-May-18 20:42 34.669986 -120.103636 296 6789ft 205kts
09-May-18 20:43 34.698303 -120.162985 296 5713ft 204kts
09-May-18 20:44 34.733188 -120.217898 312 4606ft 214kts
09-May-18 20:45 34.775581 -120.267779 311 3295ft 209kts
09-May-18 20:46 34.806567 -120.316978 303 2754ft 159kts
09-May-18 20:47 34.829913 -120.359541 299 2093ft 148kts
09-May-18 20:48 34.854048 -120.399997 312 1362ft 149kts
09-May-18 20:49 34.882284 -120.433562 314 678ft 131kts
09-May-18 20:50 34.896083 -120.449777 314 269ft 0kts
09-May-18 20:51 34.896083 -120.449777 314 269ft 0kts
09-May-18 20:52 34.896083 -120.449777 314 269ft 0kts

Navigation Log

Ident Type
Flight plan parsing failed, navigation log unavailable